Time;durP1;ratioP1;P1;durP2;ratioP2;P2;SDS_P1;SDS_P2;PMS_P1;PMS_P2;Temp;Humidity;BMP_temperature;BMP_pressure;BME280_temperature;BME280_humidity;BME280_pressure;Samples;Min_cycle;Max_cycle;Signal;HPM_P1;HPM_P2
2022/05/26 00:01:25;;;;;;;2.60;1.67;;;13.60;99.90;;;;;;5019301;28;20223;-85
2022/05/26 00:03:51;;;;;;;3.20;0.80;;;13.60;99.90;;;;;;5032353;28;20220;-84
2022/05/26 00:06:21;;;;;;;2.97;1.43;;;13.70;99.90;;;;;;5032274;28;20419;-83
2022/05/26 00:08:47;;;;;;;2.17;0.90;;;13.70;99.90;;;;;;5032381;28;20397;-83
2022/05/26 00:11:17;;;;;;;3.90;1.30;;;13.70;99.90;;;;;;5014709;28;20791;-84
2022/05/26 00:13:42;;;;;;;2.47;0.93;;;13.70;99.90;;;;;;5031907;28;20224;-84
2022/05/26 00:16:11;;;;;;;3.20;1.47;;;13.70;99.90;;;;;;5031813;28;20416;-84
2022/05/26 00:18:36;;;;;;;7.50;1.37;;;13.80;99.90;;;;;;5032111;28;20403;-84
2022/05/26 00:21:05;;;;;;;3.43;1.20;;;13.80;99.90;;;;;;5014655;28;20427;-85
2022/05/26 00:23:31;;;;;;;1.33;0.70;;;13.80;99.90;;;;;;5032149;28;20226;-84
2022/05/26 00:25:57;;;;;;;4.73;1.47;;;13.80;99.90;;;;;;5032183;28;20775;-84
2022/05/26 00:28:27;;;;;;;2.80;0.67;;;13.80;99.90;;;;;;5032196;28;20465;-83
2022/05/26 00:30:53;;;;;;;6.17;1.53;;;13.80;99.90;;;;;;5033921;28;20175;-84
2022/05/26 00:33:19;;;;;;;4.73;2.33;;;13.90;99.90;;;;;;5035793;28;20432;-83
2022/05/26 00:35:51;;;;;;;3.90;1.77;;;13.80;99.90;;;;;;5035851;28;20177;-83
2022/05/26 00:38:17;;;;;;;4.40;1.77;;;13.80;99.90;;;;;;5035832;28;20434;-83
2022/05/26 00:40:44;;;;;;;4.87;2.23;;;13.80;99.90;;;;;;5035927;28;20420;-83
2022/05/26 00:43:10;;;;;;;5.63;2.23;;;13.80;99.90;;;;;;5035810;28;20174;-84
2022/05/26 00:45:43;;;;;;;2.50;1.87;;;13.90;99.90;;;;;;5035384;28;20411;-83
2022/05/26 00:48:16;;;;;;;3.03;1.30;;;13.90;99.90;;;;;;5017827;28;20486;-83
2022/05/26 00:50:47;;;;;;;4.27;1.63;;;13.90;99.90;;;;;;5017901;28;20750;-83
2022/05/26 00:53:18;;;;;;;3.87;1.43;;;13.90;99.90;;;;;;5017848;28;20423;-84
2022/05/26 00:55:56;;;;;;;3.10;1.90;;;13.90;99.90;;;;;;5035557;28;20409;-83
2022/05/26 00:58:28;;;;;;;3.83;1.77;;;14.00;99.90;;;;;;5035561;28;20477;-84
2022/05/26 01:00:55;;;;;;;3.47;1.57;;;13.90;99.90;;;;;;5035263;28;20503;-84
2022/05/26 01:03:38;;;;;;;4.93;2.50;;;14.00;99.90;;;;;;5017733;28;20444;-82
2022/05/26 01:06:22;;;;;;;2.97;1.77;;;14.00;99.90;;;;;;5027366;28;20413;-83
2022/05/26 01:08:59;;;;;;;2.97;2.33;;;14.00;99.90;;;;;;5017630;28;20431;-83
2022/05/26 01:11:27;;;;;;;4.23;1.90;;;14.00;99.90;;;;;;5035148;28;20409;-83
2022/05/26 01:13:59;;;;;;;5.60;3.30;;;14.00;99.90;;;;;;5034872;28;20467;-86
2022/05/26 01:16:36;;;;;;;5.63;3.67;;;14.00;99.90;;;;;;5035367;28;20421;-83
2022/05/26 01:19:29;;;;;;;5.03;4.23;;;14.00;99.90;;;;;;5035113;28;20420;-84
2022/05/26 01:22:02;;;;;;;5.30;3.27;;;14.00;99.90;;;;;;5017402;28;20522;-84
2022/05/26 01:24:54;;;;;;;5.60;3.70;;;14.00;99.90;;;;;;5017247;28;20420;-84
2022/05/26 01:27:40;;;;;;;5.37;4.00;;;14.00;99.90;;;;;;5017042;28;20923;-83
2022/05/26 01:30:25;;;;;;;5.63;4.10;;;14.00;99.90;;;;;;5034610;28;20426;-83
2022/05/26 01:33:15;;;;;;;3.77;2.93;;;14.00;99.90;;;;;;5035021;28;20440;-82
2022/05/26 01:36:13;;;;;;;6.97;4.73;;;13.80;99.90;;;;;;5017094;28;20418;-82
2022/05/26 01:38:48;;;;;;;6.97;5.03;;;13.90;99.90;;;;;;5034787;28;20498;-83
2022/05/26 01:41:43;;;;;;;5.77;4.27;;;14.00;99.90;;;;;;5016870;28;20426;-83
2022/05/26 01:44:30;;;;;;;7.27;5.30;;;14.00;99.90;;;;;;5042003;28;20771;-84
2022/05/26 01:47:02;;;;;;;4.83;4.10;;;14.00;99.90;;;;;;5054400;28;20461;-82
2022/05/26 01:49:36;;;;;;;8.30;4.27;;;14.10;99.90;;;;;;5054366;28;20446;-83
2022/05/26 01:52:27;;;;;;;8.27;4.73;;;14.00;99.90;;;;;;5036527;28;20801;-83
2022/05/26 01:55:07;;;;;;;4.97;4.47;;;14.00;99.90;;;;;;5054395;28;20425;-85
2022/05/26 01:58:04;;;;;;;5.70;4.87;;;14.10;99.90;;;;;;5054190;28;20918;-84
2022/05/26 02:00:30;;;;;;;6.90;5.50;;;14.10;99.90;;;;;;5035994;28;21022;-82
2022/05/26 02:03:07;;;;;;;4.50;3.70;;;14.10;99.90;;;;;;5054204;28;20436;-83
2022/05/26 02:05:50;;;;;;;6.93;5.40;;;14.10;99.90;;;;;;5054483;28;20851;-85
2022/05/26 02:08:28;;;;;;;5.47;4.40;;;14.10;99.90;;;;;;5036059;28;20562;-84
2022/05/26 02:11:24;;;;;;;12.13;6.20;;;14.10;99.90;;;;;;5036225;28;20413;-83
2022/05/26 02:13:58;;;;;;;7.10;5.90;;;14.10;99.90;;;;;;5051439;28;21002;-85
2022/05/26 02:16:36;;;;;;;8.33;5.73;;;14.10;99.90;;;;;;5035925;28;20421;-85
2022/05/26 02:19:05;;;;;;;11.00;6.40;;;14.10;99.90;;;;;;5053800;28;20421;-83
2022/05/26 02:21:37;;;;;;;8.57;5.77;;;14.10;99.90;;;;;;5035654;28;20425;-84
2022/05/26 02:24:12;;;;;;;8.07;6.63;;;14.00;99.90;;;;;;5053837;28;20457;-83
2022/05/26 02:26:40;;;;;;;9.93;5.83;;;14.00;99.90;;;;;;5053654;28;20433;-83
2022/05/26 02:31:52;;;;;;;7.27;6.57;;;14.10;99.90;;;;;;5053995;28;20411;-83
2022/05/26 02:34:22;;;;;;;8.70;7.03;;;14.00;99.90;;;;;;5053576;28;20790;-83
2022/05/26 02:36:53;;;;;;;7.90;5.73;;;14.10;99.90;;;;;;5053617;28;20425;-84
2022/05/26 02:39:19;;;;;;;8.70;7.43;;;14.10;99.90;;;;;;5053696;28;20435;-82
2022/05/26 02:41:45;;;;;;;7.83;6.73;;;14.00;99.90;;;;;;5053405;28;20450;-82
2022/05/26 02:44:11;;;;;;;9.77;7.10;;;14.10;99.90;;;;;;5035405;28;20481;-83
2022/05/26 02:47:04;;;;;;;8.10;7.27;;;14.00;99.90;;;;;;5053298;28;20458;-85
2022/05/26 02:49:45;;;;;;;11.03;7.60;;;14.00;99.90;;;;;;5035591;28;20436;-84
2022/05/26 02:52:20;;;;;;;7.37;5.70;;;14.00;99.90;;;;;;5053260;28;20457;-85
2022/05/26 02:55:02;;;;;;;8.73;7.20;;;14.00;99.90;;;;;;5052985;28;20437;-84
2022/05/26 02:57:39;;;;;;;9.90;7.20;;;13.90;99.90;;;;;;5053215;28;20787;-83
2022/05/26 03:00:07;;;;;;;9.00;6.77;;;13.90;99.90;;;;;;5052900;28;20418;-83
2022/05/26 03:03:06;;;;;;;8.60;6.30;;;13.90;99.90;;;;;;5052892;28;20459;-83
2022/05/26 03:05:44;;;;;;;18.53;7.03;;;13.90;99.90;;;;;;5053105;28;20445;-83
2022/05/26 03:08:14;;;;;;;9.03;6.73;;;14.00;99.90;;;;;;5052927;28;20462;-83
2022/05/26 03:10:39;;;;;;;8.07;6.40;;;14.00;99.90;;;;;;5052877;28;20414;-83
2022/05/26 03:13:05;;;;;;;6.37;5.63;;;14.00;99.90;;;;;;5052721;28;20468;-83
2022/05/26 03:15:32;;;;;;;8.80;6.70;;;14.00;99.90;;;;;;5052682;28;20601;-84
2022/05/26 03:18:01;;;;;;;10.10;5.80;;;14.00;99.90;;;;;;5052888;28;20180;-84
2022/05/26 03:20:27;;;;;;;10.13;6.17;;;14.00;99.90;;;;;;5052870;28;20415;-83
2022/05/26 03:22:52;;;;;;;9.27;6.40;;;14.00;99.90;;;;;;5052829;28;20502;-85
2022/05/26 03:25:18;;;;;;;6.43;5.47;;;14.00;99.90;;;;;;5052758;28;20168;-85
2022/05/26 03:27:43;;;;;;;9.37;5.73;;;14.00;99.90;;;;;;5052668;28;20675;-85
2022/05/26 03:30:09;;;;;;;6.83;5.83;;;13.90;99.90;;;;;;5052260;28;20161;-84
2022/05/26 03:32:35;;;;;;;9.40;6.30;;;13.90;99.90;;;;;;5052609;28;20295;-84
2022/05/26 03:40:50;;;;;;;10.90;7.40;;;14.00;99.90;;;;;;5052970;28;20427;-84
2022/05/26 03:43:16;;;;;;;12.20;6.40;;;14.00;99.90;;;;;;5052721;28;20499;-84
2022/05/26 03:45:45;;;;;;;8.50;6.40;;;14.10;99.90;;;;;;5027863;28;20428;-83
2022/05/26 03:48:11;;;;;;;10.37;7.07;;;14.00;99.90;;;;;;5051440;28;20245;-84
2022/05/26 03:50:37;;;;;;;7.77;7.03;;;14.00;99.90;;;;;;5052537;28;20470;-83
2022/05/26 03:53:02;;;;;;;7.77;5.97;;;14.10;99.90;;;;;;5052424;28;20793;-83
2022/05/26 03:55:28;;;;;;;8.20;6.10;;;14.10;99.90;;;;;;5052593;28;20165;-82
2022/05/26 03:57:54;;;;;;;9.80;6.40;;;14.10;99.90;;;;;;5052458;28;20329;-83
2022/05/26 04:00:25;;;;;;;9.97;7.73;;;14.10;99.90;;;;;;5051890;28;20227;-83
2022/05/26 04:02:54;;;;;;;7.23;6.60;;;14.10;99.90;;;;;;5034295;28;20430;-83
2022/05/26 04:05:20;;;;;;;10.60;6.90;;;14.10;99.90;;;;;;5052548;28;20416;-83
2022/05/26 04:07:45;;;;;;;10.30;6.97;;;14.10;99.90;;;;;;5056095;28;20541;-84
2022/05/26 04:10:11;;;;;;;9.50;6.57;;;14.10;99.90;;;;;;5056295;28;20173;-84
2022/05/26 04:12:38;;;;;;;7.30;6.60;;;14.20;99.90;;;;;;5038222;28;20225;-84
2022/05/26 04:15:06;;;;;;;6.13;5.20;;;14.30;99.90;;;;;;5055897;28;20469;-84
2022/05/26 04:17:32;;;;;;;8.53;5.43;;;14.30;99.90;;;;;;5038986;28;20416;-82
2022/05/26 04:19:57;;;;;;;7.73;5.80;;;14.30;99.90;;;;;;5056524;28;20416;-82
2022/05/26 04:22:23;;;;;;;5.70;4.47;;;14.30;99.90;;;;;;5056329;28;20466;-89
2022/05/26 04:24:56;;;;;;;8.77;4.70;;;14.40;99.90;;;;;;5056267;28;20191;-84
2022/05/26 04:27:23;;;;;;;6.43;4.30;;;14.40;99.90;;;;;;5056073;28;20595;-86
2022/05/26 04:29:49;;;;;;;10.50;6.00;;;14.30;99.90;;;;;;5037894;28;20423;-83
2022/05/26 04:32:15;;;;;;;7.50;4.50;;;14.30;99.90;;;;;;5056080;28;20425;-84
2022/05/26 04:34:42;;;;;;;7.43;4.20;;;14.40;99.90;;;;;;5056178;28;20173;-86
2022/05/26 04:37:08;;;;;;;5.73;4.20;;;14.50;99.90;;;;;;5056097;28;20170;-82
2022/05/26 04:39:34;;;;;;;7.07;3.80;;;14.50;99.90;;;;;;5055974;28;20398;-82
2022/05/26 04:42:10;;;;;;;8.43;4.73;;;14.90;99.90;;;;;;5038020;28;20521;-82
2022/05/26 04:44:38;;;;;;;7.97;4.20;;;14.60;99.90;;;;;;5055469;28;20404;-81
2022/05/26 04:47:08;;;;;;;8.50;3.80;;;14.70;99.90;;;;;;5055483;28;20839;-81
2022/05/26 04:49:37;;;;;;;8.63;4.93;;;14.70;99.90;;;;;;5055664;28;20521;-85
2022/05/26 04:52:07;;;;;;;7.30;4.10;;;14.70;99.90;;;;;;5047483;28;20940;-82
2022/05/26 04:54:35;;;;;;;5.07;3.60;;;14.80;99.90;;;;;;5037709;28;20486;-82
2022/05/26 04:57:01;;;;;;;7.27;4.13;;;14.60;99.90;;;;;;5055010;28;20781;-82
2022/05/26 04:59:29;;;;;;;7.90;5.30;;;14.60;99.90;;;;;;5055099;28;20436;-83
2022/05/26 05:02:01;;;;;;;7.07;3.63;;;14.70;99.90;;;;;;5037534;28;20284;-84
2022/05/26 05:04:28;;;;;;;5.90;3.00;;;14.70;99.90;;;;;;5055254;28;20416;-82
2022/05/26 05:06:55;;;;;;;5.83;3.80;;;14.80;99.90;;;;;;5055057;28;20459;-81
2022/05/26 05:09:21;;;;;;;8.33;4.60;;;14.80;99.90;;;;;;5055130;28;20486;-81
2022/05/26 05:11:47;;;;;;;5.33;3.80;;;14.80;99.90;;;;;;5055116;28;20844;-81
2022/05/26 05:14:13;;;;;;;7.90;3.43;;;14.80;99.90;;;;;;5054928;28;20525;-80
2022/05/26 05:16:42;;;;;;;7.17;3.77;;;14.80;99.90;;;;;;5054697;28;20950;-82
2022/05/26 05:19:09;;;;;;;6.33;3.00;;;14.90;99.90;;;;;;5055060;28;20644;-81
2022/05/26 05:21:55;;;;;;;9.43;4.10;;;15.00;99.90;;;;;;5055050;28;20470;-82
2022/05/26 05:24:29;;;;;;;9.17;3.10;;;14.90;99.90;;;;;;5054967;28;20420;-83
2022/05/26 05:27:03;;;;;;;5.30;2.80;;;15.10;99.90;;;;;;5037114;28;20497;-80
2022/05/26 05:29:33;;;;;;;14.10;3.17;;;15.20;99.90;;;;;;5054672;28;21511;-82
2022/05/26 05:32:04;;;;;;;5.53;2.43;;;15.20;99.90;;;;;;5054824;28;20996;-81
2022/05/26 05:34:37;;;;;;;7.00;2.37;;;15.30;99.90;;;;;;5041354;28;20425;-82
2022/05/26 05:37:03;;;;;;;5.27;2.40;;;15.40;99.90;;;;;;5053896;28;20772;-82
2022/05/26 05:39:29;;;;;;;6.33;1.93;;;15.50;44.30;;;;;;5036870;28;20420;-83
2022/05/26 05:41:55;;;;;;;3.60;1.77;;;15.60;22.40;;;;;;5054753;28;20247;-82
2022/05/26 05:44:21;;;;;;;6.47;2.63;;;15.40;1.00;;;;;;5054170;28;20181;-84
2022/05/26 05:46:53;;;;;;;4.40;2.00;;;15.40;28.50;;;;;;5054674;28;20455;-81
2022/05/26 05:49:24;;;;;;;5.67;2.07;;;15.90;1.00;;;;;;5054628;28;20427;-82
2022/05/26 05:51:50;;;;;;;4.80;1.80;;;16.10;1.00;;;;;;5054474;28;20401;-82
2022/05/26 05:54:17;;;;;;;10.77;2.93;;;16.30;1.00;;;;;;5054450;28;20518;-82
2022/05/26 05:56:43;;;;;;;6.40;1.63;;;16.40;1.00;;;;;;5054326;28;20635;-82
2022/05/26 05:59:08;;;;;;;7.20;2.07;;;16.90;99.90;;;;;;5054048;28;20607;-85
2022/05/26 06:01:34;;;;;;;11.17;1.93;;;17.30;1.00;;;;;;5054294;28;20660;-80
2022/05/26 06:04:00;;;;;;;4.97;1.30;;;17.40;99.90;;;;;;5054262;28;20238;-87
2022/05/26 06:06:25;;;;;;;3.63;1.67;;;17.60;99.90;;;;;;5054241;28;20604;-87
2022/05/26 06:08:51;;;;;;;4.73;0.93;;;17.00;1.00;;;;;;5053912;28;20490;-82
2022/05/26 06:11:16;;;;;;;8.27;2.20;;;17.30;1.00;;;;;;5054052;28;20186;-85
2022/05/26 06:13:42;;;;;;;4.73;1.23;;;17.40;99.90;;;;;;5052596;28;20344;-83
2022/05/26 06:16:09;;;;;;;3.40;1.03;;;17.60;99.90;;;;;;5035314;28;20297;-82
2022/05/26 06:18:35;;;;;;;4.10;1.27;;;17.30;99.90;;;;;;5053920;28;20193;-81
2022/05/26 06:21:06;;;;;;;5.23;0.70;;;17.70;99.90;;;;;;5053738;28;20931;-83
2022/05/26 06:23:31;;;;;;;5.30;1.00;;;17.80;1.00;;;;;;5054026;28;20246;-81
2022/05/26 06:25:57;;;;;;;3.70;0.80;;;17.90;1.00;;;;;;5054140;28;20506;-82
2022/05/26 06:31:08;;;;;;;4.73;0.97;;;17.70;99.90;;;;;;5054324;28;20506;-82
2022/05/26 06:39:03;;;;;;;4.80;0.73;;;18.50;1.00;;;;;;5053936;28;20425;-87
2022/05/26 06:44:13;;;;;;;9.50;2.00;;;21.10;99.90;;;;;;5054006;28;20417;-81
2022/05/26 06:46:39;;;;;;;5.97;1.13;;;21.40;99.90;;;;;;5053669;28;20416;-86
2022/05/26 06:49:04;;;;;;;3.73;0.87;;;20.90;99.90;;;;;;5063580;28;20175;-86
2022/05/26 06:51:39;;;;;;;3.67;0.90;;;20.20;99.90;;;;;;5039258;28;20178;-87
2022/05/26 06:54:05;;;;;;;5.27;1.47;;;19.40;99.90;;;;;;5038525;28;20549;-85
2022/05/26 06:56:31;;;;;;;4.00;0.70;;;19.20;99.90;;;;;;5055064;28;20496;-82
2022/05/26 06:58:56;;;;;;;3.60;0.60;;;18.50;99.90;;;;;;5053900;28;20458;-87
2022/05/26 07:01:22;;;;;;;2.97;0.67;;;19.90;99.90;;;;;;5035615;28;20258;-87
2022/05/26 07:03:47;;;;;;;5.40;1.63;;;19.60;99.90;;;;;;5035416;28;20178;-84
2022/05/26 07:06:16;;;;;;;4.27;0.70;;;17.70;99.90;;;;;;5053370;28;20268;-85
2022/05/26 07:08:43;;;;;;;3.33;0.30;;;19.30;99.90;;;;;;5053290;28;20575;-82
2022/05/26 07:11:09;;;;;;;4.07;0.80;;;21.80;99.90;;;;;;5053293;28;20436;-85
2022/05/26 07:13:34;;;;;;;3.87;0.53;;;22.00;99.90;;;;;;5034870;28;20468;-84
2022/05/26 07:16:00;;;;;;;5.60;0.67;;;20.70;99.90;;;;;;5053197;28;20170;-83
2022/05/26 07:18:26;;;;;;;7.20;0.83;;;19.00;99.90;;;;;;5053070;28;20183;-82
2022/05/26 07:20:51;;;;;;;4.63;0.53;;;18.60;99.90;;;;;;5035324;28;20180;-83
2022/05/26 07:23:17;;;;;;;4.30;0.73;;;18.00;99.90;;;;;;5053060;28;20804;-84
2022/05/26 07:25:43;;;;;;;3.40;0.77;;;19.90;99.90;;;;;;5035261;28;20169;-82
2022/05/26 07:28:10;;;;;;;5.23;0.67;;;21.00;99.90;;;;;;5052587;28;20213;-83
2022/05/26 07:30:36;;;;;;;4.73;0.80;;;23.10;95.20;;;;;;5052929;28;20400;-85
2022/05/26 07:33:01;;;;;;;2.67;0.60;;;20.80;93.10;;;;;;5035011;28;20479;-83
2022/05/26 07:35:27;;;;;;;3.33;0.70;;;22.30;80.10;;;;;;5052926;28;20230;-82
2022/05/26 07:43:21;;;;;;;1.73;0.70;;;17.10;99.90;;;;;;5052465;28;20432;-81
2022/05/26 07:45:51;;;;;;;5.30;0.27;;;20.60;99.90;;;;;;5052781;28;20410;-86
2022/05/26 07:48:20;;;;;;;5.40;0.63;;;20.70;97.00;;;;;;5052728;28;20212;-86
2022/05/26 07:50:45;;;;;;;5.27;0.97;;;22.20;69.40;;;;;;5052739;28;20429;-84
2022/05/26 07:53:14;;;;;;;2.70;0.70;;;21.30;69.80;;;;;;5052731;28;20432;-85
2022/05/26 07:55:42;;;;;;;4.70;0.60;;;22.80;50.40;;;;;;5052781;28;20181;-85
2022/05/26 07:58:09;;;;;;;6.10;0.60;;;20.70;29.50;;;;;;5052253;28;20421;-86
2022/05/26 08:00:35;;;;;;;1.93;0.50;;;18.70;47.50;;;;;;5052641;28;20511;-82
2022/05/26 08:03:00;;;;;;;7.07;0.50;;;21.00;49.50;;;;;;5052511;28;20511;-86
2022/05/26 08:05:26;;;;;;;3.83;0.40;;;22.30;39.10;;;;;;5052679;28;20633;-84
2022/05/26 08:07:51;;;;;;;2.67;0.70;;;21.70;38.00;;;;;;5034605;28;20215;-84
2022/05/26 08:10:17;;;;;;;5.03;0.50;;;20.20;31.60;;;;;;5034638;28;20254;-84
2022/05/26 08:12:42;;;;;;;4.20;0.40;;;18.90;35.10;;;;;;5052031;28;20554;-85
2022/05/26 08:15:10;;;;;;;2.20;1.63;;;18.10;38.60;;;;;;5052358;28;20199;-85
2022/05/26 08:17:36;;;;;;;5.80;0.50;;;17.80;56.60;;;;;;5052292;28;20169;-85
2022/05/26 08:20:03;;;;;;;4.00;0.20;;;17.80;69.10;;;;;;5052518;28;20459;-83
2022/05/26 08:22:28;;;;;;;4.50;0.53;;;18.50;71.50;;;;;;5052358;28;20851;-86
2022/05/26 08:24:56;;;;;;;3.30;0.83;;;19.90;44.80;;;;;;5052350;28;20450;-84
2022/05/26 08:27:22;;;;;;;1.77;0.20;;;22.10;39.30;;;;;;5052147;28;20236;-87
2022/05/26 08:29:48;;;;;;;6.63;0.43;;;20.40;26.40;;;;;;5051974;28;20781;-85
2022/05/26 08:32:18;;;;;;;3.13;0.77;;;22.10;26.90;;;;;;5052309;28;20416;-85
2022/05/26 08:34:44;;;;;;;1.87;0.33;;;19.50;18.30;;;;;;5052343;28;20902;-85
2022/05/26 08:37:20;;;;;;;6.80;0.53;;;18.30;24.40;;;;;;5052159;28;20411;-84
2022/05/26 08:39:47;;;;;;;1.97;0.40;;;20.00;36.10;;;;;;5052199;28;20178;-83
2022/05/26 08:42:27;;;;;;;1.80;0.40;;;19.30;30.50;;;;;;5052252;28;20418;-84
2022/05/26 08:44:56;;;;;;;3.60;0.67;;;18.80;40.00;;;;;;5051903;28;20426;-83
2022/05/26 08:47:32;;;;;;;3.53;0.33;;;18.70;52.70;;;;;;5052091;28;20822;-83
2022/05/26 08:50:03;;;;;;;1.37;0.30;;;20.40;46.20;;;;;;5052147;28;20415;-83
2022/05/26 08:52:34;;;;;;;2.30;0.30;;;23.50;30.20;;;;;;5054896;28;20415;-82
2022/05/26 08:55:25;;;;;;;1.87;0.30;;;23.70;9.80;;;;;;5055850;28;20402;-85
2022/05/26 08:58:01;;;;;;;3.63;0.30;;;23.30;1.00;;;;;;5055288;28;20444;-84
2022/05/26 09:00:27;;;;;;;1.27;0.40;;;23.10;1.00;;;;;;5055836;28;20415;-86
2022/05/26 09:02:59;;;;;;;2.00;0.20;;;23.30;1.00;;;;;;5055732;28;20412;-85
2022/05/26 09:05:34;;;;;;;3.00;0.43;;;24.30;1.00;;;;;;5030434;28;20471;-86
2022/05/26 09:13:56;;;;;;;3.00;0.40;;;21.70;1.00;;;;;;5000558;28;20837;-84
2022/05/26 09:16:23;;;;;;;4.20;0.40;;;22.00;1.00;;;;;;5037439;28;20502;-82
2022/05/26 09:19:06;;;;;;;1.97;0.30;;;21.90;1.00;;;;;;5055226;28;20197;-85
2022/05/26 09:21:31;;;;;;;1.67;0.50;;;20.20;1.00;;;;;;5055078;28;20910;-83
2022/05/26 09:24:22;;;;;;;1.80;0.20;;;19.40;1.00;;;;;;5055013;28;20415;-83
2022/05/26 09:26:59;;;;;;;2.60;0.30;;;18.80;1.00;;;;;;5055000;28;20202;-83
2022/05/26 09:29:28;;;;;;;3.10;0.30;;;18.60;1.00;;;;;;5054590;28;20425;-85
2022/05/26 09:31:55;;;;;;;2.40;0.20;;;19.40;1.00;;;;;;5036930;28;20523;-85
2022/05/26 09:34:26;;;;;;;0.77;0.20;;;19.30;1.00;;;;;;5054775;28;20421;-85
2022/05/26 09:36:53;;;;;;;0.83;0.30;;;19.20;1.00;;;;;;5036900;28;20420;-84
2022/05/26 09:39:24;;;;;;;3.47;0.30;;;20.20;1.00;;;;;;5054859;28;21008;-84
2022/05/26 09:41:54;;;;;;;1.03;0.20;;;19.50;1.00;;;;;;5054942;28;20411;-84
2022/05/26 09:44:29;;;;;;;5.10;0.30;;;19.60;1.00;;;;;;5054245;28;20506;-83
2022/05/26 09:46:57;;;;;;;1.60;0.30;;;19.50;1.00;;;;;;5036703;28;21005;-85
2022/05/26 09:49:26;;;;;;;2.30;0.20;;;18.90;1.00;;;;;;5054422;28;20531;-84
2022/05/26 09:52:15;;;;;;;1.53;0.40;;;19.60;1.00;;;;;;5054450;28;20443;-85
2022/05/26 09:54:41;;;;;;;6.70;1.30;;;19.30;1.00;;;;;;5054463;28;20427;-82
2022/05/26 09:57:25;;;;;;;5.67;0.63;;;19.20;1.00;;;;;;5054348;28;20926;-83
2022/05/26 09:59:54;;;;;;;3.63;0.80;;;19.20;1.00;;;;;;5057471;28;20172;-85
2022/05/26 10:02:35;;;;;;;1.50;0.20;;;19.20;1.00;;;;;;5056141;28;20412;-84
2022/05/26 10:05:27;;;;;;;1.83;0.37;;;20.80;1.00;;;;;;5054368;28;20902;-83
2022/05/26 10:08:11;;;;;;;3.40;0.30;;;20.00;1.00;;;;;;5053962;28;20453;-84
2022/05/26 10:10:40;;;;;;;2.30;0.20;;;19.50;1.00;;;;;;5036382;28;20428;-82
2022/05/26 10:13:33;;;;;;;2.20;0.37;;;19.80;1.00;;;;;;5053523;28;20914;-81
2022/05/26 10:16:24;;;;;;;3.67;0.30;;;19.50;1.00;;;;;;5054032;28;20417;-84
2022/05/26 10:19:08;;;;;;;3.60;0.30;;;18.90;1.00;;;;;;5053886;28;20558;-84
2022/05/26 10:21:45;;;;;;;3.07;0.40;;;19.30;1.00;;;;;;5054108;28;20546;-85
2022/05/26 10:24:37;;;;;;;1.27;0.27;;;20.30;1.00;;;;;;5053840;28;20430;-82
2022/05/26 10:27:36;;;;;;;4.33;0.20;;;19.20;1.00;;;;;;5042170;28;20491;-85
2022/05/26 10:30:24;;;;;;;3.83;0.30;;;18.90;1.00;;;;;;5035826;28;20421;-84
2022/05/26 10:33:18;;;;;;;1.80;0.30;;;19.10;6.10;;;;;;5053703;28;20477;-84
2022/05/26 10:36:02;;;;;;;4.30;0.30;;;19.40;5.90;;;;;;5053773;28;20414;-84
2022/05/26 10:38:53;;;;;;;1.63;0.20;;;19.40;1.10;;;;;;5053785;28;20452;-85
2022/05/26 10:41:28;;;;;;;3.40;0.60;;;19.00;6.60;;;;;;5053795;28;20403;-84
2022/05/26 10:44:23;;;;;;;0.93;0.20;;;18.70;6.50;;;;;;5052554;28;20514;-84
2022/05/26 10:46:59;;;;;;;1.47;0.37;;;18.60;13.10;;;;;;5053114;28;20460;-83
2022/05/26 10:49:42;;;;;;;3.27;1.00;;;18.40;20.00;;;;;;5053246;28;20427;-83
2022/05/26 10:52:12;;;;;;;3.77;0.30;;;18.40;17.30;;;;;;5053217;28;20419;-85
2022/05/26 10:54:41;;;;;;;2.27;0.63;;;19.40;13.20;;;;;;5035570;28;20408;-85
2022/05/26 10:57:18;;;;;;;2.27;0.57;;;19.50;14.40;;;;;;5053177;28;20485;-85
2022/05/26 11:00:04;;;;;;;3.37;0.60;;;21.30;16.00;;;;;;5053243;28;20415;-80
2022/05/26 11:02:58;;;;;;;3.30;0.60;;;21.40;5.10;;;;;;5052967;28;20482;-81
2022/05/26 11:05:30;;;;;;;3.60;0.40;;;21.40;3.30;;;;;;5053189;28;20492;-81
2022/05/26 11:08:27;;;;;;;1.70;0.30;;;21.40;1.00;;;;;;5052886;28;20570;-82
2022/05/26 11:11:14;;;;;;;2.70;0.70;;;22.20;3.80;;;;;;5042082;28;20519;-80
2022/05/26 11:13:55;;;;;;;6.20;1.23;;;21.70;1.00;;;;;;5052158;28;20456;-82
2022/05/26 11:19:46;;;;;;;2.47;0.67;;;19.20;3.70;;;;;;5052979;28;20463;-81
2022/05/26 11:22:14;;;;;;;5.00;0.43;;;18.80;12.10;;;;;;5034753;28;20413;-84
2022/05/26 11:24:40;;;;;;;2.00;0.40;;;18.60;15.40;;;;;;5052638;28;20425;-85
2022/05/26 11:27:11;;;;;;;3.20;0.47;;;18.50;16.70;;;;;;5052522;28;20456;-83
2022/05/26 11:30:00;;;;;;;3.97;0.73;;;18.60;16.40;;;;;;5052765;28;20424;-84
2022/05/26 11:38:45;;;;;;;2.13;0.30;;;21.00;14.80;;;;;;5052324;28;20458;-83
2022/05/26 11:41:21;;;;;;;1.00;0.20;;;20.70;2.30;;;;;;5052638;28;20497;-82
2022/05/26 11:44:02;;;;;;;2.40;0.50;;;20.00;1.80;;;;;;5052212;28;20421;-80
2022/05/26 11:46:50;;;;;;;2.90;0.40;;;19.50;2.00;;;;;;5052707;28;20868;-81
2022/05/26 11:49:48;;;;;;;5.20;0.50;;;19.20;10.50;;;;;;5052582;28;20424;-81
2022/05/26 11:52:34;;;;;;;3.17;0.50;;;18.80;16.00;;;;;;5008027;28;20465;-80
2022/05/26 11:55:02;;;;;;;2.50;0.43;;;18.50;17.70;;;;;;5052572;28;20426;-80
2022/05/26 11:57:38;;;;;;;2.10;0.40;;;18.20;15.60;;;;;;5051903;28;20763;-81
2022/05/26 12:00:18;;;;;;;1.90;0.50;;;18.00;17.40;;;;;;5052322;28;20771;-81
2022/05/26 12:02:46;;;;;;;2.33;0.40;;;17.80;33.80;;;;;;5034428;28;20450;-83
2022/05/26 12:05:30;;;;;;;2.47;0.47;;;17.60;51.90;;;;;;5052217;28;20517;-81
2022/05/26 12:08:03;;;;;;;6.40;1.10;;;17.50;64.00;;;;;;5052090;28;20495;-81
2022/05/26 12:10:49;;;;;;;4.03;0.90;;;17.50;92.30;;;;;;5052316;28;20424;-84
2022/05/26 12:13:27;;;;;;;4.33;0.53;;;17.60;74.90;;;;;;5051588;28;20460;-83
2022/05/26 12:16:25;;;;;;;3.90;0.53;;;18.00;53.70;;;;;;5052127;28;20425;-82
2022/05/26 12:19:02;;;;;;;2.00;0.50;;;18.70;40.40;;;;;;5036549;28;20434;-82
2022/05/26 12:21:27;;;;;;;1.47;0.43;;;18.40;32.40;;;;;;5052311;28;20550;-84
2022/05/26 12:23:58;;;;;;;1.77;0.23;;;18.20;28.00;;;;;;5051927;28;20467;-83
2022/05/26 12:26:25;;;;;;;2.07;0.63;;;18.10;32.20;;;;;;5035638;28;20176;-82
2022/05/26 12:28:51;;;;;;;2.80;0.20;;;18.40;37.00;;;;;;5032981;28;20820;-84
2022/05/26 12:31:17;;;;;;;3.97;0.53;;;18.40;25.30;;;;;;5036086;28;20414;-84
2022/05/26 12:33:53;;;;;;;5.73;0.50;;;18.40;29.60;;;;;;5036870;28;20514;-83
2022/05/26 12:36:45;;;;;;;1.40;0.40;;;18.80;41.60;;;;;;5042879;28;20714;-83
2022/05/26 12:39:20;;;;;;;2.73;0.40;;;18.70;29.60;;;;;;5040165;28;20419;-83
2022/05/26 12:42:21;;;;;;;2.83;0.30;;;18.70;26.70;;;;;;5044338;28;20411;-83
2022/05/26 12:45:34;;;;;;;2.90;0.50;;;18.70;32.80;;;;;;5044150;28;20435;-84
2022/05/26 12:48:24;;;;;;;3.57;0.67;;;18.50;33.20;;;;;;5028429;28;20510;-84
2022/05/26 12:50:50;;;;;;;2.57;0.50;;;18.50;34.10;;;;;;5049983;28;20488;-83
2022/05/26 12:53:29;;;;;;;4.40;0.50;;;18.40;37.40;;;;;;5055457;28;20422;-84
2022/05/26 12:56:37;;;;;;;1.57;0.23;;;18.50;40.00;;;;;;5055646;28;20192;-85
2022/05/26 12:59:04;;;;;;;3.93;0.70;;;18.50;34.30;;;;;;5047111;28;20414;-86
2022/05/26 13:01:31;;;;;;;1.80;0.83;;;18.60;41.90;;;;;;5055459;28;20401;-84
2022/05/26 13:04:06;;;;;;;1.73;0.20;;;18.50;46.60;;;;;;5055480;28;20783;-85
2022/05/26 13:06:36;;;;;;;2.80;0.20;;;18.40;53.80;;;;;;5055546;28;20758;-83
2022/05/26 13:09:33;;;;;;;1.33;0.47;;;18.70;51.10;;;;;;5055193;28;20827;-83
2022/05/26 13:12:04;;;;;;;2.10;0.80;;;18.80;56.30;;;;;;5064779;28;20446;-84
2022/05/26 13:14:48;;;;;;;2.80;0.50;;;18.40;48.00;;;;;;5064941;28;20427;-82
2022/05/26 13:17:19;;;;;;;3.37;0.50;;;17.90;53.60;;;;;;5058796;28;20887;-83
2022/05/26 13:19:51;;;;;;;3.80;0.60;;;17.60;59.20;;;;;;5055591;28;20422;-83
2022/05/26 13:22:49;;;;;;;4.40;0.60;;;17.60;83.00;;;;;;5055103;28;20523;-83
2022/05/26 13:25:22;;;;;;;3.77;0.30;;;17.80;91.40;;;;;;5051006;28;20448;-84
2022/05/26 13:27:52;;;;;;;1.20;0.40;;;18.00;91.60;;;;;;5036660;28;20950;-84
2022/05/26 13:33:11;;;;;;;2.40;0.60;;;18.00;79.20;;;;;;5047640;28;20761;-84
2022/05/26 13:35:49;;;;;;;1.80;0.37;;;18.10;92.60;;;;;;5054989;28;20414;-83
2022/05/26 13:38:46;;;;;;;2.93;0.63;;;18.50;63.10;;;;;;5036680;28;20421;-83
2022/05/26 13:41:20;;;;;;;3.20;1.03;;;19.20;56.30;;;;;;5031173;28;20513;-83
2022/05/26 13:43:48;;;;;;;2.30;0.40;;;19.20;57.10;;;;;;5016620;28;20428;-83
2022/05/26 13:46:29;;;;;;;2.63;0.30;;;19.20;47.80;;;;;;5034618;28;20416;-84
2022/05/26 13:48:59;;;;;;;1.90;0.40;;;19.00;56.30;;;;;;5034566;28;20494;-81
2022/05/26 13:51:38;;;;;;;4.33;0.40;;;18.50;73.50;;;;;;5016805;28;20421;-83
2022/05/26 13:54:20;;;;;;;3.17;0.50;;;18.30;85.70;;;;;;5026493;28;20434;-83
2022/05/26 13:56:47;;;;;;;5.70;0.53;;;18.00;99.90;;;;;;5016274;28;20427;-83
2022/05/26 13:59:16;;;;;;;4.33;0.77;;;17.90;99.90;;;;;;5034238;28;20451;-84
2022/05/26 14:02:08;;;;;;;2.63;0.47;;;18.00;99.90;;;;;;5034452;28;20423;-85